LPMA/FNC METAR and TAF weather

Enter ICAO airport designator
Station Type Date Time Source
LPMA METAR 2019/02/20 17:30 UTC NOAA

LPMA 201730Z 22013KT 9999 FEW016 SCT030 17/08 Q1019


Station Type Date Time Source
LPMA Decoded METAR 2019/02/20 17:30 UTC NOAA

Aeroporto Da Madeira, Portugal (LPMA) 32-41-52N 016-46-28W
Feb 20, 2019 - 12:30 PM EST / 2019.02.20 1730 UTC
Wind: from the SW (220 degrees) at 15 MPH (13 KT):0
Visibility: greater than 7 mile(s):0
Sky conditions: partly cloudy
Temperature: 62 F (17 C)
Dew Point: 46 F (8 C)
Relative Humidity: 55%
Pressure (altimeter): 30.09 in. Hg (1019 hPa)
ob: LPMA 201730Z 22013KT 9999 FEW016 SCT030 17/08 Q1019
cycle: 17

Station Type Date Time Source
LPMA TAF 2019/02/20 18:18 UTC NOAA

TAF LPMA 201700Z 2018/2118 21015KT 9999 FEW015 BKN030
TEMPO 2018/2118 SCT015 PROB30
TEMPO 2018/2118 21017G30KT


Example: see airport list